Participated 7 times
Between 1935 and 1951
Pierre Cogan, France
Tour de France 2026 starts from Edinburgh, Scotland in

Stats and Facts from
Tour de France.

2026   2025   2024   2023  2022  2021  2020  2019   2018  2017   2016   2015  2014  2013   2012   2011  2010   2009   2008   2007   2006   2005   2004   2003   2002   2001   2000   1999   1998   1997  1996   1995   1994   1993   1992  1991   1990   1989   1988   1987   1986   1985   1984   1983  1982  1981   1980   1979  1978  1977   1976  1975  1974  1973   1972   1971   1970  1969   1968   1967   1966   1965  1964  1963   1962   1961   1960   1959   1958   1957  1956   1955   1954   1953   1952  1951  1950  1949   1948  1947  1939   1938   1937   1936   1935   1934   1933  1932   1931   1930  1929   1928   1927   1926  1925  1924  1923   1922   1921   1920   1919  1914   1913   1912   1911   1910  1909   1908   1907   1906  1905  1904   1903 

Tourstats
Sitemap

After stage 21 - 2026:
 16451 starters.
  5513 different riders.
  689 teams.
  2419 stages.
  470 restdays.
  469752.50 km.
  5946 abandoned riders.

Click map for 1930 route.
Facts from Tour de France 1930 Additional info and images from 1930.
  |   Stages.  |   Stage winners.  |   Days in jerseys.  |   Teams.  |   All riders.  |   All riders by age.  |   All riders from.  |  

  |   Rookies.  |   Withdrawls.  |   Average speed.  |   GC.  |   Polka  |   Green  |   White  |   Summits. (In tour)  |   Miscellaneous.  |  

Stage 1 on July 2nd. 1930
Pick a stage:  1  2  3  4  5  6  7  8  9  10  11  12  13  14  15  16  17  18  19  20  21  

After stage 1:    Charles Pelissier  
  ParisCaen | Dist: 206.00km. | Winner: Charles Pelissier

Podium

Average speed for all riders in stage:  30,029 km./hr.

1
 Charles Pelissier  France06h 36' 01"=31,211  km/h

2
 Alfredo Binda  Italy06h 36' 01"=31,211  km/h

3
 Leonida Frascarelli  Italy06h 37' 17"+  00:01:16 =31,111  km/h

4  Antonin Magne  France06h 37' 17"+  00:01:16 =31,111  km/h

4  André Leducq  France06h 37' 17"+  00:01:16 =31,111  km/h

4  Salvador Cardona  Spain06h 37' 17"+  00:01:16 =31,111  km/h

4  Jules Merviel  France06h 37' 17"+  00:01:16 =31,111  km/h

4  Benoit Faure  Touristes Routiers06h 37' 17"+  00:01:16 =31,111  km/h

4  Frans Bonduel  Belgium06h 37' 17"+  00:01:16 =31,111  km/h

4  Hermann Buse  Germany06h 37' 17"+  00:01:16 =31,111  km/h

4  Bruno Wolke  Germany06h 37' 17"+  00:01:16 =31,111  km/h

4  Learco Guerra  Italy06h 37' 17"+  00:01:16 =31,111  km/h

4  Domenico Piemontesi  Italy06h 37' 17"+  00:01:16 =31,111  km/h

4  Louis Peglion  Touristes Routiers06h 37' 17"+  00:01:16 =31,111  km/h

4  Jef Demuysere  Belgium06h 37' 17"+  00:01:16 =31,111  km/h

4  Albert Barthélémy  Touristes Routiers06h 37' 17"+  00:01:16 =31,111  km/h

4  Jean Gouleme  Touristes Routiers06h 37' 17"+  00:01:16 =31,111  km/h

4  Giuseppe Pancera  Italy06h 37' 17"+  00:01:16 =31,111  km/h

4  Alfred Siegel  Germany06h 37' 17"+  00:01:16 =31,111  km/h

4  Georges Laloup  Belgium06h 37' 17"+  00:01:16 =31,111  km/h

4  Julien Perrain  Touristes Routiers06h 37' 17"+  00:01:16 =31,111  km/h

4  Remi Verschaetse  Touristes Routiers06h 37' 17"+  00:01:16 =31,111  km/h

4  Aimé Dossche  Belgium06h 37' 17"+  00:01:16 =31,111  km/h

4  Louis Delannoy  Belgium06h 37' 17"+  00:01:16 =31,111  km/h

4  Gaetano Belloni  Italy06h 37' 17"+  00:01:16 =31,111  km/h

4  Marco Giuntelli  Italy06h 37' 17"+  00:01:16 =31,111  km/h

4  Felix Manthey  Germany06h 37' 17"+  00:01:16 =31,111  km/h

4  Herbert Nebe  Germany06h 37' 17"+  00:01:16 =31,111  km/h

4  Adolf Schön  Germany06h 37' 17"+  00:01:16 =31,111  km/h

4  Oscar Tietz  Germany06h 37' 17"+  00:01:16 =31,111  km/h

4  Victor Fontan  France06h 37' 17"+  00:01:16 =31,111  km/h

4  Marcel Bidot  France06h 37' 17"+  00:01:16 =31,111  km/h

4  Pierre Magne  France06h 37' 17"+  00:01:16 =31,111  km/h

4  Odiel Taillieu  Touristes Routiers06h 37' 17"+  00:01:16 =31,111  km/h

4  Paul Delbart  Touristes Routiers06h 37' 17"+  00:01:16 =31,111  km/h

4  François Ondet  Touristes Routiers06h 37' 17"+  00:01:16 =31,111  km/h

4  Lucien Buysse  Touristes Routiers06h 37' 17"+  00:01:16 =31,111  km/h

38  Oskar Thierbach  Germany06h 38' 21"+  00:02:20 =31,028  km/h

38  Joseph Mauclair  France06h 38' 21"+  00:02:20 =31,028  km/h

38  Felice Gremo  Italy06h 38' 21"+  00:02:20 =31,028  km/h

38  Fernand Robache  Touristes Routiers06h 38' 21"+  00:02:20 =31,028  km/h

38  Jan Mertens  Belgium06h 38' 21"+  00:02:20 =31,028  km/h

38  Marcel Huot  Touristes Routiers06h 38' 21"+  00:02:20 =31,028  km/h

38  Fernand Bruynooghe  Touristes Routiers06h 38' 21"+  00:02:20 =31,028  km/h

45  Pierre Jouel  Touristes Routiers06h 41' 15"+  00:05:14 =30,804  km/h

46  François Moreels  Touristes Routiers06h 42' 02"+  00:06:01 =30,744  km/h

46  Louis Bajard  Touristes Routiers06h 42' 02"+  00:06:01 =30,744  km/h

48  Jean Aerts  Belgium06h 42' 05"+  00:06:04 =30,740  km/h

49  Fernand Fayolle  Touristes Routiers06h 42' 41"+  00:06:40 =30,694  km/h

50  Valeriano Riera  Spain06h 43' 12"+  00:07:11 =30,655  km/h

51  Léopold Boisselle  Touristes Routiers06h 44' 02"+  00:08:01 =30,592  km/h

52  Lucien Laval  Touristes Routiers06h 46' 28"+  00:10:27 =30,408  km/h

52  Jérôme Declercq  Touristes Routiers06h 46' 28"+  00:10:27 =30,408  km/h

54  Marcel Mazeyrat  Touristes Routiers06h 48' 55"+  00:12:54 =30,226  km/h

54  Georges Berton  Touristes Routiers06h 48' 55"+  00:12:54 =30,226  km/h

54  Omer Taverne  Belgium06h 48' 55"+  00:12:54 =30,226  km/h

54  Armand Goubert  Touristes Routiers06h 48' 55"+  00:12:54 =30,226  km/h

58  Henri Gottrand  Touristes Routiers06h 50' 40"+  00:14:39 =30,097  km/h

58  Emile Faillu  Touristes Routiers06h 50' 40"+  00:14:39 =30,097  km/h

58  Adrien Plautin  Touristes Routiers06h 50' 40"+  00:14:39 =30,097  km/h

58  Secondo Martinetto  Touristes Routiers06h 50' 40"+  00:14:39 =30,097  km/h

58  Henri Simonin  Touristes Routiers06h 50' 40"+  00:14:39 =30,097  km/h

58  Ernest Mottard  Touristes Routiers06h 50' 40"+  00:14:39 =30,097  km/h

58  Candida Badal  Touristes Routiers06h 50' 40"+  00:14:39 =30,097  km/h

65  Marcel Tissier  Touristes Routiers06h 54' 03"+  00:18:02 =29,851  km/h

66  Jesús Dermit  Spain06h 54' 39"+  00:18:38 =29,808  km/h

67  Lucien Lange  Touristes Routiers06h 55' 03"+  00:19:02 =29,780  km/h

67  Aurelio Menegazzi  Touristes Routiers06h 55' 03"+  00:19:02 =29,780  km/h

69  Juan Mateu  Spain06h 57' 09"+  00:21:08 =29,630  km/h

69  Marcel Masson  Touristes Routiers06h 57' 09"+  00:21:08 =29,630  km/h

69  Henri Prevost  Touristes Routiers06h 57' 09"+  00:21:08 =29,630  km/h

69  Maurice Arnoult  Touristes Routiers06h 57' 09"+  00:21:08 =29,630  km/h

69  Jean-Baptiste Ampurias  Touristes Routiers06h 57' 09"+  00:21:08 =29,630  km/h

69  Jean Martinet  Touristes Routiers06h 57' 09"+  00:21:08 =29,630  km/h

75  Guy Bariffi  Touristes Routiers06h 57' 09"+  00:21:08 =29,630  km/h

76  Nicolas Tubau  Spain06h 57' 41"+  00:21:40 =29,592  km/h

77  Paulin Lanterni  Touristes Routiers06h 58' 18"+  00:22:17 =29,548  km/h

78  Georges Petit  Touristes Routiers06h 58' 47"+  00:22:46 =29,514  km/h

78  Edouard Teisseire  Touristes Routiers06h 58' 47"+  00:22:46 =29,514  km/h

78  Auguste Encrine  Touristes Routiers06h 58' 47"+  00:22:46 =29,514  km/h

81  Fernand Moulet  Touristes Routiers06h 59' 39"+  00:23:38 =29,453  km/h

82  Henri Touzard  Touristes Routiers07h 01' 12"+  00:25:11 =29,345  km/h

83  Battista Berardi  Touristes Routiers07h 02' 51"+  00:26:50 =29,230  km/h

84  Pierre Bobo  Touristes Routiers07h 07' 21"+  00:31:20 =28,922  km/h

85  Vicente Trueba  Spain07h 10' 17"+  00:34:16 =28,725  km/h

85  Francisco Cepeda  Spain07h 10' 17"+  00:34:16 =28,725  km/h

87  Charles Cottalorda  Touristes Routiers07h 16' 33"+  00:40:32 =28,313  km/h

87  Omer Huyse  Touristes Routiers07h 16' 33"+  00:40:32 =28,313  km/h

89  Jose Trueba  Spain07h 28' 41"+  00:52:40 =27,547  km/h

89  Ubaldo Merlo  Touristes Routiers07h 28' 41"+  00:52:40 =27,547  km/h

89  Eugene Werner  Touristes Routiers07h 28' 41"+  00:52:40 =27,547  km/h

89  Gaston Persignan  Touristes Routiers07h 28' 41"+  00:52:40 =27,547  km/h

93  Marcel Folliot  Touristes Routiers07h 33' 02"+  00:57:01 =27,283  km/h

93  André Souchard  Touristes Routiers07h 33' 02"+  00:57:01 =27,283  km/h

95  Marcel Ilpide  Touristes Routiers07h 34' 01"+  00:58:00 =27,224  km/h

96  Charles Cento  Touristes Routiers07h 40' 12"+  01:04:11 =26,858  km/h

97  Pierre Charton  Touristes Routiers07h 40' 20"+  01:04:19 =26,850  km/h

98  Giovanni Roncon  Touristes Routiers07h 55' 06"+  01:19:05 =26,016  km/h

99  Lorenzo Fortuno  Touristes Routiers07h 56' 16"+  01:20:15 =25,952  km/h


Withdrawls: 1
 RiderTeamReason
184   Raymond Lales Touristes RoutiersDid not finish
Todays birthdays.

1858 • Aimé Monin
1894 • Camille Nicou
1902 • Louis Millo
1902 • Aleardo Simoni
1903 • Jean-Gabriel Zenon
1926 • Isidoor De Ryck
1931 • Miguel Pacheco
1946 • Stéphane Abrahamian
1956 • Siegfried Hekimi
1957 • Peter Winnen
1958 • Marcel Russenberger
1958 • Patrick Versluys
1981 • Daniel Moreno
1984 • Chris Anker Sørensen
1989 • Joey Rosskopf

 

Optimized for Chrome - Edge
and Opera browsers.